Whitaker, Pennsylvania
Current Conditions -  °F | °C
As of 10:53 AM on Tuesday 21 Oct 2014 (Local Time) from KAGC Reporting Station
Haze Haze  
Wind Chill: 54°   Ceiling: 3700
Heat Index: 54°   Visibility: 4mi
Dew Point: 47°   Wind: 8mph
Humidity: 77%   Direction: 240°WSW
Pressure: 29.87"   Gusts: NA
Location:  40.3948°N, 79.9074°W
Report Text: KAGC 211453Z 24007KT 4SM HZ SCT010 OVC037 12/08 A2987 RMK AO2 SLP119 T01220083 50005
Loading
Personal Weather Stations






























Interactive Weather Map
Tropical Storm Tracking
New forecast layout! Learn more

10-Day Weather Forecast

Advertisements
Track Severe Weather on mobile